Terminal Aerodrome Forecast
Issued by NWS

Home | Current Version | Previous Version | Text Only | Print | Product List | Glossary On
Versions: 1 2 3 4 5 6 7 8 9 10 11 12 13 14 15
000
FTUS44 KBMX 172300
TAFEET
TAF
KEET 172325Z 1800/1824 11004KT P6SM SCT050 OVC120
     FM180900 09007KT P6SM VCSH OVC050
     FM181200 06008KT P6SM -SHRA OVC035=

USA.gov is the U.S. government's official web portal to all federal, state and local government web resources and services.